Flight Track Log - Related Links

Times and Time Zones

All times are in EDT time to prevent confusion due to time zone crossing. See the DAL1781 flight status page for this flight to view local times or setup timezone preferences in your user account.

Time Position Orientation Groundspeed Altitude Reporting Facility
EDT Latitude Longitude Course Direction KTS MPH feet Rate Location/Type
Thu 04:32:38 PM 44.8872 -93.2883 120° Southeast 178 205 3,000  Level Minneapolis Center
Thu 04:34:42 PM 44.8014 -93.4075 225° Southwest 283 326 9,200 2,444 Climbing Minneapolis Center
Thu 04:36:46 PM 44.6850 -93.1633 145° Southeast 393 452 13,100 2,081 Climbing Minneapolis Center
Thu 04:38:50 PM 44.5544 -92.8900 145° Southeast 432 497 17,800 2,053 Climbing Minneapolis Center
Thu 04:39:53 PM 44.4844 -92.7447 124° Southeast 444 511 19,500 1,776 Climbing Minneapolis Center
Thu 04:40:55 PM 44.4122 -92.5936 124° Southeast 462 532 21,500 1,984 Climbing Minneapolis Center
Thu 04:41:57 PM 44.3219 -92.4056 124° Southeast 482 555 23,600 1,742 Climbing Minneapolis Center
Thu 04:42:59 PM 44.2511 -92.2400 121° Southeast 494 568 25,100 1,405 Climbing Minneapolis Center
Thu 04:44:35 PM 44.1281 -91.9658 125° Southeast 526 605 27,300 1,367 Climbing Chicago Center
Thu 04:45:37 PM 44.0525 -91.7919 121° Southeast 526 605 28,700 1,382 Climbing Chicago Center
Thu 04:47:07 PM 43.9453 -91.5392 120° Southeast 530 610 30,800 1,500 Climbing Minneapolis Center
Thu 04:48:09 PM 43.8297 -91.3481 130° Southeast 540 621 32,500 1,584 Climbing Minneapolis Center
Thu 04:49:12 PM 43.7242 -91.2025 135° Southeast 541 623 34,100 1,392 Climbing Minneapolis Center
Thu 04:50:14 PM 43.6208 -91.0586 135° Southeast 537 618 35,400 791 Climbing Minneapolis Center
Thu 04:52:52 PM 43.3089 -90.7611 135° Southeast 538 619 37,000 436 Climbing Chicago Center
Thu 04:53:54 PM 43.1681 -90.7156 167° South 528 608 37,000  Level Chicago Center
Thu 04:55:58 PM 42.8572 -90.5872 163° South 533 613 37,000 463 Level Chicago Center
Thu 04:58:00 PM 42.5997 -90.4667 161° South 521 600 38,900 645 Climbing Kansas City Center
Thu 04:59:04 PM 42.4714 -90.4086 162° South 500 575 39,000 47 Climbing Kansas City Center
Thu 05:00:07 PM 42.3278 -90.3456 162° South 501 577 39,000  Level Chicago Center
Thu 05:02:09 PM 42.0453 -90.2214 162° South 502 578 39,000  Level Kansas City Center
Thu 05:03:14 PM 41.9022 -90.1556 161° South 506 582 39,000  Level Chicago Center
Thu 05:04:16 PM 41.7539 -90.0892 162° South 501 577 39,000  Level Chicago Center
Thu 05:05:18 PM 41.6236 -90.0333 162° South 493 567 39,000  Level Chicago Center
Thu 05:06:20 PM 41.4947 -89.9767 162° South 488 562 39,000  Level Chicago Center
Thu 05:07:22 PM 41.3678 -89.9208 162° South 486 559 39,000  Level Chicago Center
Thu 05:09:25 PM 41.1108 -89.8089 162° South 486 559 39,000  Level Kansas City Center
Thu 05:10:28 PM 40.9667 -89.7461 162° South 483 556 39,000  Level Chicago Center
Thu 05:11:31 PM 40.8414 -89.6922 162° South 480 552 39,000  Level Chicago Center
Thu 05:13:35 PM 40.5656 -89.5733 162° South 478 550 39,000  Level Chicago Center
Thu 05:14:37 PM 40.4447 -89.5231 162° South 478 550 39,000  Level Chicago Center
Thu 05:15:39 PM 40.3175 -89.4692 162° South 478 550 39,000  Level Chicago Center
Thu 05:17:43 PM 40.0594 -89.3600 162° South 484 557 39,000  Level Chicago Center
Thu 05:18:42 PM 39.9319 -89.3067 162° South 483 556 39,000  Level Kansas City Center
Thu 05:20:50 PM 39.6558 -89.1961 163° South 476 548 39,000  Level Chicago Center
Thu 05:21:51 PM 39.5331 -89.1422 161° South 470 541 39,000  Level Kansas City Center
Thu 05:22:51 PM 39.4086 -89.0919 163° South 470 541 39,000  Level Kansas City Center
Thu 05:23:52 PM 39.2969 -89.0467 163° South 469 540 39,000  Level Kansas City Center
Thu 05:24:56 PM 39.1481 -88.9856 162° South 469 540 39,000  Level Kansas City Center
Thu 05:25:57 PM 39.0261 -88.9361 163° South 464 534 39,000  Level Kansas City Center
Thu 05:28:02 PM 38.7761 -88.8356 163° South 468 539 39,000  Level Kansas City Center
Thu 05:29:03 PM 38.6528 -88.7847 162° South 468 539 39,000  Level Kansas City Center
Thu 05:30:06 PM 38.5056 -88.7283 163° South 468 539 39,000  Level Kansas City Center
Thu 05:31:49 PM 38.3122 -88.6517 163° South 465 535 39,000  Level Memphis Center
Thu 05:32:51 PM 38.1669 -88.5933 162° South 459 528 39,000  Level Memphis Center
Thu 05:33:53 PM 38.0456 -88.5458 163° South 458 527 39,000  Level Memphis Center
Thu 05:34:55 PM 37.9233 -88.4972 163° South 458 527 39,000  Level Memphis Center
Thu 05:35:57 PM 37.8003 -88.4508 163° South 458 527 39,000  Level Memphis Center
Thu 05:37:19 PM 37.6489 -88.3908 163° South 458 527 39,000  Level Kansas City Center
Thu 05:38:23 PM 37.5083 -88.3353 163° South 447 514 39,000  Level Kansas City Center
Thu 05:39:03 PM 37.4444 -88.3103 163° South 443 510 39,000  Level Memphis Center
Thu 05:40:05 PM 37.3028 -88.2469 160° South 446 513 39,000  Level Memphis Center
Thu 05:42:09 PM 37.1275 -88.0131 133° Southeast 473 544 39,000  Level Memphis Center
Thu 05:43:11 PM 37.0372 -87.8892 132° Southeast 473 544 39,000  Level Memphis Center
Thu 05:44:13 PM 36.9311 -87.7469 133° Southeast 474 545 39,000  Level Memphis Center
Thu 05:45:15 PM 36.8419 -87.6244 132° Southeast 474 545 39,000  Level Memphis Center
Thu 05:46:17 PM 36.7517 -87.5031 133° Southeast 474 545 39,000  Level Memphis Center
Thu 05:47:19 PM 36.6625 -87.3825 133° Southeast 474 545 39,000  Level Memphis Center
Thu 05:48:21 PM 36.5733 -87.2631 133° Southeast 470 541 39,000 -583 Level Memphis Center
Thu 05:51:26 PM 36.2908 -86.8886 147° Southeast 469 540 36,600 -947 Descending Memphis Center
Thu 05:52:28 PM 36.2011 -86.7717 134° Southeast 471 542 35,100 -1,161 Descending Memphis Center
Thu 05:54:32 PM 35.9931 -86.5675 142° Southeast 476 548 33,000 -508 Descending Memphis Center
Thu 05:56:00 PM 35.8534 -86.4362 143° Southeast  Level Estimated
Thu 05:56:36 PM 35.7494 -86.3714 143° Southeast 477 549 33,000  Level Memphis Center
Thu 05:57:00 PM 35.8027 -86.4213 147° Southeast  Level FlightAware Approximate
Thu 05:58:41 PM 35.5181 -86.1819 146° Southeast 478 550 33,000  Level Atlanta Center
Thu 05:59:42 PM 35.4175 -86.1042 148° Southeast 476 548 33,000 -148 Level Memphis Center
Thu 06:00:43 PM 35.3081 -86.0161 148° Southeast 475 547 32,700 -634 Descending Memphis Center
Thu 06:01:00 PM 35.2840 -86.0016 148° Southeast  Level FlightAware Approximate
Thu 06:01:45 PM 35.1950 -85.9469 153° Southeast 467 537 31,700  Level Memphis Center
Thu 06:02:47 PM 35.0478 -85.9425 179° South 445 512 30,700 -871 Descending Memphis Center
Thu 06:03:49 PM 34.9281 -85.9267 174° South 441 507 29,900 -759 Descending Memphis Center
Thu 06:05:41 PM 34.7100 -85.8278 160° South 431 496 28,500 -1,138 Descending Atlanta Center
Thu 06:07:41 PM 34.4922 -85.7400 162° South 441 507 25,500 -1,333 Descending Atlanta Center
Thu 06:08:41 PM 34.4058 -85.6450 138° Southeast 416 479 24,500 -1,667 Descending Atlanta Center
Thu 06:10:41 PM 34.2794 -85.3964 118° Southeast 403 464 20,500 -1,950 Descending Atlanta Center
Thu 06:12:41 PM 34.1647 -85.1711 129° Southeast 393 452 16,700 -1,900 Descending Atlanta Center
Thu 06:13:41 PM 34.1094 -85.0650 122° Southeast 393 452 14,800 -1,450 Descending Atlanta Center
Thu 06:14:41 PM 34.0453 -84.9664 128° Southeast 387 445 13,800 -1,250 Descending Atlanta Center
Thu 06:15:41 PM 33.9750 -84.8781 134° Southeast 376 433 12,300 -900 Descending Atlanta Center
Thu 06:16:41 PM 33.9047 -84.7922 135° Southeast 366 421 12,000 -161 Descending Atlanta Center
Thu 06:17:33 PM 33.8333 -84.7167 139° Southeast 364 419 12,000  Level Atlanta TRACON
Thu 06:18:39 PM 33.7667 -84.6333 134° Southeast 319 367 12,000 -95 Level Atlanta TRACON
Thu 06:19:39 PM 33.7333 -84.5500 116° Southeast 274 315 11,800 -900 Descending Atlanta TRACON
Thu 06:20:39 PM 33.7333 -84.4667 90° East 285 328 10,200 -1,549 Descending Atlanta TRACON
Thu 06:22:41 PM 33.7314 -84.2911 91° East 263 303 7,100 -1,367 Descending Atlanta Center
Thu 06:23:39 PM 33.7333 -84.2000 89° East 255 293 6,100 -1,220 Descending Atlanta TRACON
Thu 06:24:39 PM 33.6667 -84.1833 168° South 216 249 4,700 -1,100 Descending Atlanta TRACON
Thu 06:26:39 PM 33.6500 -84.3000 265° West 166 191 2,800 -867 Descending Atlanta TRACON
Thu 06:27:39 PM 33.6500 -84.3500 270° West 130 150 2,100 -700 Descending Atlanta TRACON
Thu 06:29:00 PM 33.6367 -84.4279 253° West  Level Estimated
Thu 06:36:00 PM 33.6367 -84.4279 265° West  Level Estimated
Thu 06:37:00 PM 33.6367 -84.4279 86° East  Level Estimated

Login

Don't have an account? Register now (free) for customized features, flight alerts, and more!